Time;durP1;ratioP1;P1;durP2;ratioP2;P2;SDS_P1;SDS_P2;PMS_P1;PMS_P2;Temp;Humidity;BMP_temperature;BMP_pressure;BME280_temperature;BME280_humidity;BME280_pressure;Samples;Min_cycle;Max_cycle;Signal;HPM_P1;HPM_P2
2022/07/20 00:02:22;;;;;;;4.30;3.40;;;;;;;;;;103338;1323;22857;-30
2022/07/20 00:04:52;;;;;;;6.00;4.60;;;;;;;;;;103086;1314;22575;-24
2022/07/20 00:07:21;;;;;;;4.00;3.50;;;;;;;;;;103145;1314;22725;-28
2022/07/20 00:12:22;;;;;;;9.50;5.70;;;;;;;;;;103166;1321;22763;-26
2022/07/20 00:14:51;;;;;;;7.80;7.10;;;;;;;;;;103108;1317;25360;-31
2022/07/20 00:17:20;;;;;;;9.00;4.50;;;;;;;;;;103133;1313;22569;-26
2022/07/20 00:19:48;;;;;;;5.50;4.20;;;;;;;;;;103110;1313;22950;-31
2022/07/20 00:22:17;;;;;;;;;;;;;;;;;;103093;1313;22831;-31
2022/07/20 00:24:46;;;;;;;6.80;5.00;;;;;;;;;;103144;1320;22732;-25
2022/07/20 00:27:15;;;;;;;8.60;5.40;;;;;;;;;;103146;1323;22793;-31
2022/07/20 00:29:43;;;;;;;5.10;4.30;;;;;;;;;;103086;1323;22716;-25
2022/07/20 00:32:12;;;;;;;12.20;5.70;;;;;;;;;;103113;1320;25379;-26
2022/07/20 00:34:41;;;;;;;4.90;4.20;;;;;;;;;;103104;1314;22558;-26
2022/07/20 00:37:10;;;;;;;8.50;5.90;;;;;;;;;;102416;1320;1002998;-31
2022/07/20 00:39:39;;;;;;;6.60;5.10;;;;;;;;;;103112;1327;22788;-25
2022/07/20 00:42:07;;;;;;;5.40;4.90;;;;;;;;;;103188;1313;22573;-26
2022/07/20 00:44:36;;;;;;;5.80;4.80;;;;;;;;;;103139;1326;22565;-23
2022/07/20 00:47:06;;;;;;;6.50;5.60;;;;;;;;;;103125;1328;22570;-28
2022/07/20 00:49:35;;;;;;;15.10;4.80;;;;;;;;;;103131;1323;23146;-29
2022/07/20 00:52:04;;;;;;;6.80;5.20;;;;;;;;;;103088;1320;22567;-23
2022/07/20 00:54:33;;;;;;;15.20;5.60;;;;;;;;;;103163;1326;22612;-24
2022/07/20 00:57:02;;;;;;;9.00;5.90;;;;;;;;;;103143;1320;22791;-32
2022/07/20 00:59:31;;;;;;;6.30;4.60;;;;;;;;;;103159;1320;22571;-26
2022/07/20 01:02:00;;;;;;;7.90;4.30;;;;;;;;;;103021;1313;25305;-31
2022/07/20 01:04:28;;;;;;;5.10;3.20;;;;;;;;;;103112;1320;22679;-26
2022/07/20 01:06:57;;;;;;;5.50;4.40;;;;;;;;;;103108;1313;22572;-25
2022/07/20 01:09:26;;;;;;;11.20;3.80;;;;;;;;;;103176;1323;22719;-24
2022/07/20 01:11:55;;;;;;;11.60;5.10;;;;;;;;;;103163;1313;22796;-28
2022/07/20 01:14:24;;;;;;;8.70;4.20;;;;;;;;;;103140;1320;22555;-26
2022/07/20 01:16:53;;;;;;;8.50;5.80;;;;;;;;;;103136;1316;22717;-25
2022/07/20 01:19:22;;;;;;;4.90;3.90;;;;;;;;;;103165;1314;22542;-29
2022/07/20 01:21:50;;;;;;;5.90;4.90;;;;;;;;;;103140;1313;22749;-26
2022/07/20 01:24:19;;;;;;;3.60;3.20;;;;;;;;;;103152;1325;22841;-31
2022/07/20 01:26:48;;;;;;;7.30;5.00;;;;;;;;;;103138;1320;22568;-29
2022/07/20 01:29:17;;;;;;;6.10;4.90;;;;;;;;;;103102;1322;22569;-26
2022/07/20 01:31:46;;;;;;;12.00;5.80;;;;;;;;;;103091;1320;22624;-27
2022/07/20 01:34:15;;;;;;;8.90;4.60;;;;;;;;;;103102;1320;22601;-29
2022/07/20 01:36:44;;;;;;;7.40;4.30;;;;;;;;;;103137;1313;22571;-25
2022/07/20 01:39:12;;;;;;;;;;;;;;;;;;103167;1323;22549;-29
2022/07/20 01:41:41;;;;;;;7.50;5.20;;;;;;;;;;103248;1314;22720;-22
2022/07/20 01:44:10;;;;;;;8.50;6.30;;;;;;;;;;103237;1326;22545;-28
2022/07/20 01:46:39;;;;;;;12.60;7.40;;;;;;;;;;103125;1320;23055;-27
2022/07/20 01:49:07;;;;;;;8.40;5.60;;;;;;;;;;103270;1326;22719;-25
2022/07/20 01:51:36;;;;;;;21.30;7.30;;;;;;;;;;103096;1323;22714;-24
2022/07/20 01:54:05;;;;;;;9.50;5.50;;;;;;;;;;103099;1323;22565;-28
2022/07/20 01:56:34;;;;;;;7.70;5.10;;;;;;;;;;103101;1313;22855;-26
2022/07/20 01:59:02;;;;;;;7.60;5.30;;;;;;;;;;103337;1313;22680;-24
2022/07/20 02:01:31;;;;;;;8.00;6.10;;;;;;;;;;103140;1314;22566;-26
2022/07/20 02:04:00;;;;;;;10.40;6.00;;;;;;;;;;103091;1313;22573;-29
2022/07/20 02:06:29;;;;;;;12.30;5.60;;;;;;;;;;103203;1314;22564;-28
2022/07/20 02:08:58;;;;;;;10.10;5.70;;;;;;;;;;103241;1320;22714;-34
2022/07/20 02:11:27;;;;;;;8.40;5.10;;;;;;;;;;103120;1320;22549;-23
2022/07/20 02:13:56;;;;;;;11.50;5.30;;;;;;;;;;103284;1324;22699;-27
2022/07/20 02:16:25;;;;;;;8.50;5.10;;;;;;;;;;103150;1326;22723;-28
2022/07/20 02:18:55;;;;;;;8.30;5.50;;;;;;;;;;103322;1321;22861;-24
2022/07/20 02:21:24;;;;;;;5.40;4.50;;;;;;;;;;103127;1320;25312;-24
2022/07/20 02:23:53;;;;;;;7.00;4.10;;;;;;;;;;103243;1323;22577;-24
2022/07/20 02:26:22;;;;;;;7.60;4.10;;;;;;;;;;103120;1314;22864;-25
2022/07/20 02:28:51;;;;;;;16.90;5.30;;;;;;;;;;103080;1320;22588;-24
2022/07/20 02:31:20;;;;;;;11.00;6.60;;;;;;;;;;103171;1313;22576;-31
2022/07/20 02:33:49;;;;;;;7.80;5.40;;;;;;;;;;103202;1320;24265;-28
2022/07/20 02:36:18;;;;;;;9.30;5.30;;;;;;;;;;103096;1324;22553;-28
2022/07/20 02:38:47;;;;;;;12.30;9.10;;;;;;;;;;103255;1320;22551;-25
2022/07/20 02:41:15;;;;;;;13.40;7.90;;;;;;;;;;103265;1313;22722;-25
2022/07/20 02:43:44;;;;;;;9.20;5.80;;;;;;;;;;103064;1323;22571;-28
2022/07/20 02:46:13;;;;;;;3.90;3.10;;;;;;;;;;103240;1320;22714;-29
2022/07/20 02:48:42;;;;;;;5.10;4.20;;;;;;;;;;103090;1313;22546;-38
2022/07/20 02:51:10;;;;;;;6.40;4.90;;;;;;;;;;103196;1323;22545;-24
2022/07/20 02:53:39;;;;;;;4.20;2.80;;;;;;;;;;103376;1323;22737;-24
2022/07/20 02:56:08;;;;;;;13.20;6.20;;;;;;;;;;103277;1313;22815;-28
2022/07/20 02:58:37;;;;;;;8.80;5.50;;;;;;;;;;103037;1323;22822;-28
2022/07/20 03:01:06;;;;;;;22.40;6.50;;;;;;;;;;103248;1317;22546;-25
2022/07/20 03:03:35;;;;;;;10.80;4.50;;;;;;;;;;103117;1320;22810;-25
2022/07/20 03:06:04;;;;;;;10.70;6.10;;;;;;;;;;103161;1320;22595;-29
2022/07/20 03:08:32;;;;;;;7.40;4.00;;;;;;;;;;103243;1320;22728;-24
2022/07/20 03:11:01;;;;;;;6.30;4.50;;;;;;;;;;103155;1313;22565;-25
2022/07/20 03:13:30;;;;;;;5.80;4.20;;;;;;;;;;103198;1323;22723;-29
2022/07/20 03:15:59;;;;;;;6.30;5.30;;;;;;;;;;103069;1313;22705;-24
2022/07/20 03:18:27;;;;;;;9.10;5.40;;;;;;;;;;103123;1323;22549;-28
2022/07/20 03:20:56;;;;;;;10.00;5.00;;;;;;;;;;103237;1323;22554;-24
2022/07/20 03:23:25;;;;;;;9.20;3.90;;;;;;;;;;103086;1320;22866;-28
2022/07/20 03:25:54;;;;;;;5.20;4.30;;;;;;;;;;103227;1313;22628;-27
2022/07/20 03:28:22;;;;;;;8.80;3.10;;;;;;;;;;103208;1323;22863;-30
2022/07/20 03:30:51;;;;;;;8.70;5.80;;;;;;;;;;103170;1313;22826;-29
2022/07/20 03:33:20;;;;;;;5.50;3.70;;;;;;;;;;103136;1313;22668;-24
2022/07/20 03:35:49;;;;;;;6.10;4.80;;;;;;;;;;103117;1313;22859;-26
2022/07/20 03:38:17;;;;;;;8.00;5.60;;;;;;;;;;103168;1323;22794;-29
2022/07/20 03:40:46;;;;;;;9.70;6.50;;;;;;;;;;103282;1313;22558;-25
2022/07/20 03:43:15;;;;;;;12.20;5.20;;;;;;;;;;103179;1323;22877;-25
2022/07/20 03:45:44;;;;;;;8.80;6.70;;;;;;;;;;103069;1320;22676;-28
2022/07/20 03:48:13;;;;;;;10.50;6.80;;;;;;;;;;103033;1327;22772;-30
2022/07/20 03:50:41;;;;;;;6.70;4.80;;;;;;;;;;103151;1320;22719;-28
2022/07/20 03:53:10;;;;;;;8.70;5.70;;;;;;;;;;103076;1323;22736;-24
2022/07/20 03:55:39;;;;;;;13.60;5.30;;;;;;;;;;103130;1314;22560;-28
2022/07/20 03:58:08;;;;;;;9.40;7.00;;;;;;;;;;103075;1323;22572;-26
2022/07/20 04:00:37;;;;;;;19.80;6.10;;;;;;;;;;103286;1320;22568;-24
2022/07/20 04:03:06;;;;;;;17.90;9.20;;;;;;;;;;102705;1320;756231;-25
2022/07/20 04:05:34;;;;;;;8.10;6.40;;;;;;;;;;103188;1320;22593;-28
2022/07/20 04:08:03;;;;;;;10.40;7.40;;;;;;;;;;103164;1323;22559;-26
2022/07/20 04:10:32;;;;;;;8.50;6.40;;;;;;;;;;103121;1314;22728;-24
2022/07/20 04:13:03;;;;;;;18.00;6.30;;;;;;;;;;103177;1313;22568;-30
2022/07/20 04:15:32;;;;;;;9.00;6.70;;;;;;;;;;103078;1320;22562;-25
2022/07/20 04:18:01;;;;;;;9.00;6.10;;;;;;;;;;103128;1313;22631;-25
2022/07/20 04:20:30;;;;;;;11.70;5.00;;;;;;;;;;103149;1323;22748;-28
2022/07/20 04:22:58;;;;;;;14.80;6.40;;;;;;;;;;103285;1324;22890;-24
2022/07/20 04:25:27;;;;;;;5.30;4.30;;;;;;;;;;103144;1313;22580;-29
2022/07/20 04:27:58;;;;;;;8.80;4.90;;;;;;;;;;103137;1323;22854;-24
2022/07/20 04:30:28;;;;;;;10.70;4.90;;;;;;;;;;103343;1320;22816;-28
2022/07/20 04:32:57;;;;;;;8.80;5.10;;;;;;;;;;103221;1320;25399;-29
2022/07/20 04:35:26;;;;;;;12.40;5.60;;;;;;;;;;103231;1314;22567;-27
2022/07/20 04:37:54;;;;;;;11.20;4.40;;;;;;;;;;103265;1322;22589;-28
2022/07/20 04:40:23;;;;;;;7.50;5.00;;;;;;;;;;103162;1313;22558;-28
2022/07/20 04:42:52;;;;;;;9.40;5.90;;;;;;;;;;103040;1323;22705;-30
2022/07/20 04:45:21;;;;;;;5.80;5.30;;;;;;;;;;103282;1314;22711;-30
2022/07/20 04:47:49;;;;;;;20.30;9.90;;;;;;;;;;103111;1323;22832;-28
2022/07/20 04:50:18;;;;;;;8.60;6.80;;;;;;;;;;103144;1320;22561;-25
2022/07/20 04:52:47;;;;;;;11.10;6.70;;;;;;;;;;103237;1323;22565;-27
2022/07/20 04:55:16;;;;;;;9.60;6.60;;;;;;;;;;103273;1313;22565;-28
2022/07/20 04:57:45;;;;;;;14.50;5.70;;;;;;;;;;103158;1323;22565;-29
2022/07/20 05:00:14;;;;;;;9.10;5.30;;;;;;;;;;103165;1313;22582;-29
2022/07/20 05:02:42;;;;;;;9.00;6.60;;;;;;;;;;103267;1320;22965;-25
2022/07/20 05:05:11;;;;;;;12.50;5.90;;;;;;;;;;103204;1313;22541;-29
2022/07/20 05:07:40;;;;;;;10.00;6.70;;;;;;;;;;103157;1313;22790;-29
2022/07/20 05:10:10;;;;;;;7.70;4.90;;;;;;;;;;103214;1313;23187;-29
2022/07/20 05:12:39;;;;;;;13.70;5.50;;;;;;;;;;103106;1320;25443;-31
2022/07/20 05:15:08;;;;;;;11.10;5.90;;;;;;;;;;103139;1314;22735;-29
2022/07/20 05:17:36;;;;;;;19.40;7.10;;;;;;;;;;103143;1323;22577;-29
2022/07/20 05:20:05;;;;;;;11.30;6.20;;;;;;;;;;103211;1313;22716;-28
2022/07/20 05:22:34;;;;;;;14.80;4.90;;;;;;;;;;103324;1320;22546;-25
2022/07/20 05:25:03;;;;;;;7.60;4.40;;;;;;;;;;103167;1323;22720;-28
2022/07/20 05:27:32;;;;;;;15.90;6.00;;;;;;;;;;103206;1323;22584;-28
2022/07/20 05:30:01;;;;;;;13.90;3.90;;;;;;;;;;103207;1313;22576;-27
2022/07/20 05:32:29;;;;;;;5.60;4.70;;;;;;;;;;103230;1323;22724;-26
2022/07/20 05:34:58;;;;;;;5.90;4.70;;;;;;;;;;103197;1323;22622;-28
2022/07/20 05:37:27;;;;;;;9.60;5.30;;;;;;;;;;103290;1323;22964;-27
2022/07/20 05:39:55;;;;;;;8.70;4.40;;;;;;;;;;103163;1313;22583;-23
2022/07/20 05:42:24;;;;;;;8.70;5.20;;;;;;;;;;103177;1323;23054;-29
2022/07/20 05:44:53;;;;;;;9.60;4.40;;;;;;;;;;103199;1313;22631;-25
2022/07/20 05:47:22;;;;;;;8.40;4.60;;;;;;;;;;103138;1320;22880;-26
2022/07/20 05:49:51;;;;;;;5.80;3.90;;;;;;;;;;103146;1326;22562;-26
2022/07/20 05:52:19;;;;;;;;;;;;;;;;;;103152;1314;22861;-26
2022/07/20 05:54:49;;;;;;;14.50;4.30;;;;;;;;;;103106;1314;22560;-26
2022/07/20 05:57:17;;;;;;;5.90;3.40;;;;;;;;;;103194;1320;23144;-27
2022/07/20 05:59:46;;;;;;;7.60;5.00;;;;;;;;;;103162;1320;22739;-31
2022/07/20 06:02:15;;;;;;;5.50;3.80;;;;;;;;;;103142;1320;22844;-27
2022/07/20 06:04:44;;;;;;;11.40;4.50;;;;;;;;;;103176;1313;22567;-26
2022/07/20 06:07:13;;;;;;;4.50;3.90;;;;;;;;;;103200;1314;25280;-26
2022/07/20 06:09:42;;;;;;;7.60;4.80;;;;;;;;;;103159;1314;24617;-26
2022/07/20 06:12:11;;;;;;;11.60;5.60;;;;;;;;;;103248;1314;22615;-29
2022/07/20 06:14:39;;;;;;;7.70;3.70;;;;;;;;;;103112;1323;22583;-31
2022/07/20 06:17:08;;;;;;;6.10;5.20;;;;;;;;;;103180;1313;22715;-31
2022/07/20 06:19:37;;;;;;;6.10;4.70;;;;;;;;;;103123;1323;22682;-31
2022/07/20 06:22:06;;;;;;;6.30;4.00;;;;;;;;;;103167;1314;22949;-31
2022/07/20 06:24:35;;;;;;;8.90;3.80;;;;;;;;;;103152;1323;22726;-32
2022/07/20 06:27:13;;;;;;;6.30;3.50;;;;;;;;;;103186;1323;22598;-31
2022/07/20 06:29:41;;;;;;;13.60;4.20;;;;;;;;;;103120;1314;22567;-26
2022/07/20 06:32:10;;;;;;;7.90;3.50;;;;;;;;;;103137;1323;22566;-31
2022/07/20 06:34:39;;;;;;;9.70;5.20;;;;;;;;;;103160;1326;22699;-26
2022/07/20 06:37:08;;;;;;;11.00;4.90;;;;;;;;;;103157;1323;22721;-32
2022/07/20 06:39:37;;;;;;;7.00;5.00;;;;;;;;;;103148;1323;25709;-31
2022/07/20 06:42:05;;;;;;;7.00;3.30;;;;;;;;;;103163;1320;22724;-31
2022/07/20 06:44:34;;;;;;;6.50;3.30;;;;;;;;;;103158;1320;22794;-26
2022/07/20 06:47:03;;;;;;;8.90;4.00;;;;;;;;;;103154;1314;22700;-31
2022/07/20 06:49:33;;;;;;;8.90;4.10;;;;;;;;;;102980;1328;22565;-32
2022/07/20 06:52:02;;;;;;;12.30;5.10;;;;;;;;;;103112;1323;22574;-31
2022/07/20 06:54:30;;;;;;;3.80;2.50;;;;;;;;;;103152;1320;25417;-29
2022/07/20 06:57:08;;;;;;;5.80;2.70;;;;;;;;;;103163;1320;22730;-26
2022/07/20 06:59:45;;;;;;;9.20;4.00;;;;;;;;;;103101;1314;22699;-26
2022/07/20 07:02:23;;;;;;;3.90;3.30;;;;;;;;;;103130;1314;22564;-23
2022/07/20 07:04:51;;;;;;;4.90;3.60;;;;;;;;;;103168;1323;22819;-31
2022/07/20 07:07:20;;;;;;;5.20;3.40;;;;;;;;;;103167;1313;22680;-31
2022/07/20 07:09:49;;;;;;;6.30;3.40;;;;;;;;;;103146;1323;22826;-29
2022/07/20 07:12:18;;;;;;;7.70;4.20;;;;;;;;;;103159;1314;22705;-31
2022/07/20 07:14:47;;;;;;;7.50;3.60;;;;;;;;;;103159;1313;22680;-26
2022/07/20 07:17:16;;;;;;;6.40;3.80;;;;;;;;;;103205;1297;25508;-30
2022/07/20 07:19:45;;;;;;;6.00;3.20;;;;;;;;;;103149;1314;22935;-26
2022/07/20 07:22:13;;;;;;;9.70;3.90;;;;;;;;;;103151;1314;22586;-29
2022/07/20 07:24:42;;;;;;;5.60;3.60;;;;;;;;;;103167;1314;22736;-29
2022/07/20 07:27:11;;;;;;;7.30;3.40;;;;;;;;;;103199;1314;22569;-29
2022/07/20 07:29:40;;;;;;;9.70;2.70;;;;;;;;;;103164;1320;22550;-28
2022/07/20 07:32:09;;;;;;;6.10;3.40;;;;;;;;;;103326;1323;22831;-28
2022/07/20 07:34:37;;;;;;;13.50;3.20;;;;;;;;;;103142;1323;22708;-25
2022/07/20 07:37:06;;;;;;;4.70;3.30;;;;;;;;;;103160;1314;22561;-28
2022/07/20 07:39:35;;;;;;;6.40;2.60;;;;;;;;;;103323;1326;22736;-28
2022/07/20 07:42:13;;;;;;;6.10;2.80;;;;;;;;;;103101;1320;22728;-30
2022/07/20 07:44:41;;;;;;;3.00;2.40;;;;;;;;;;102423;1314;1003336;-27
2022/07/20 07:47:10;;;;;;;3.40;1.70;;;;;;;;;;103290;1313;22562;-25
2022/07/20 07:49:39;;;;;;;8.90;2.90;;;;;;;;;;103316;1323;22483;-24
2022/07/20 07:52:08;;;;;;;2.90;2.00;;;;;;;;;;103249;1323;22588;-25
2022/07/20 07:54:37;;;;;;;2.20;2.00;;;;;;;;;;103171;1323;22712;-26
2022/07/20 07:57:05;;;;;;;5.80;2.20;;;;;;;;;;103280;1313;22565;-26
2022/07/20 07:59:35;;;;;;;1.60;1.50;;;;;;;;;;103153;1323;22549;-29
2022/07/20 08:02:03;;;;;;;6.10;1.60;;;;;;;;;;103277;1313;22546;-29
2022/07/20 08:04:32;;;;;;;4.30;1.90;;;;;;;;;;103180;1323;22560;-26
2022/07/20 08:07:10;;;;;;;1.90;1.60;;;;;;;;;;103119;1323;22761;-30
2022/07/20 08:09:38;;;;;;;3.60;1.90;;;;;;;;;;103140;1323;23188;-26
2022/07/20 08:12:07;;;;;;;9.10;1.90;;;;;;;;;;103188;1323;22612;-25
2022/07/20 08:14:36;;;;;;;4.00;2.60;;;;;;;;;;103304;1320;22888;-31
2022/07/20 08:17:05;;;;;;;6.40;1.40;;;;;;;;;;103264;1323;22914;-31
2022/07/20 08:19:33;;;;;;;1.90;1.80;;;;;;;;;;103193;1323;22879;-27
2022/07/20 08:22:02;;;;;;;2.90;2.00;;;;;;;;;;103204;1313;23039;-26
2022/07/20 08:24:31;;;;;;;5.10;2.50;;;;;;;;;;103253;1320;22859;-28
2022/07/20 08:27:00;;;;;;;13.70;2.00;;;;;;;;;;103137;1314;22550;-25
2022/07/20 08:29:29;;;;;;;2.40;2.10;;;;;;;;;;103290;1324;22990;-28
2022/07/20 08:31:58;;;;;;;3.00;1.50;;;;;;;;;;103109;1313;22867;-28
2022/07/20 08:34:27;;;;;;;11.20;1.90;;;;;;;;;;102979;1323;22563;-25
2022/07/20 08:36:56;;;;;;;3.00;1.90;;;;;;;;;;103085;1314;22972;-28
2022/07/20 08:39:25;;;;;;;2.80;1.40;;;;;;;;;;103147;1323;22860;-24
2022/07/20 08:41:54;;;;;;;3.20;1.80;;;;;;;;;;103290;1313;22864;-30
2022/07/20 08:44:23;;;;;;;11.30;2.40;;;;;;;;;;103255;1314;22628;-28
2022/07/20 08:46:51;;;;;;;6.10;2.30;;;;;;;;;;103330;1313;22813;-30
2022/07/20 08:49:20;;;;;;;6.90;1.90;;;;;;;;;;103071;1323;22567;-30
2022/07/20 08:51:49;;;;;;;2.20;1.60;;;;;;;;;;103274;1323;23074;-29
2022/07/20 08:54:18;;;;;;;2.90;1.50;;;;;;;;;;103119;1323;23609;-27
2022/07/20 08:56:47;;;;;;;3.70;1.80;;;;;;;;;;103100;1314;22686;-25
2022/07/20 08:59:16;;;;;;;6.50;1.60;;;;;;;;;;103156;1323;22604;-30
2022/07/20 09:01:48;;;;;;;3.30;1.60;;;;;;;;;;103161;1313;22565;-30
2022/07/20 09:04:17;;;;;;;2.90;2.40;;;;;;;;;;103113;1323;22580;-24
2022/07/20 09:06:47;;;;;;;2.00;1.30;;;;;;;;;;103168;1313;22869;-31
2022/07/20 09:09:16;;;;;;;4.70;2.10;;;;;;;;;;103034;1323;22864;-25
2022/07/20 09:11:45;;;;;;;6.10;2.00;;;;;;;;;;103069;1314;22562;-26
2022/07/20 09:14:16;;;;;;;2.30;1.70;;;;;;;;;;103174;1321;22546;-25
2022/07/20 09:16:46;;;;;;;1.40;1.30;;;;;;;;;;103152;1326;22794;-25
2022/07/20 09:19:15;;;;;;;8.90;1.70;;;;;;;;;;103171;1320;22555;-31
2022/07/20 09:21:44;;;;;;;30.50;2.30;;;;;;;;;;103052;1317;22865;-27
2022/07/20 09:24:15;;;;;;;3.60;1.70;;;;;;;;;;103169;1323;22670;-25
2022/07/20 09:26:44;;;;;;;2.30;2.00;;;;;;;;;;103190;1320;22554;-31
2022/07/20 09:29:13;;;;;;;3.50;1.60;;;;;;;;;;103195;1323;25255;-26
2022/07/20 09:31:42;;;;;;;2.40;1.00;;;;;;;;;;103183;1314;22552;-25
2022/07/20 09:34:12;;;;;;;2.40;1.10;;;;;;;;;;103147;1323;22570;-31
2022/07/20 09:36:42;;;;;;;2.20;2.00;;;;;;;;;;103154;1320;22792;-24
2022/07/20 09:39:12;;;;;;;2.30;1.40;;;;;;;;;;103122;1323;22747;-29
2022/07/20 09:41:41;;;;;;;1.60;1.20;;;;;;;;;;103172;1314;22570;-25
2022/07/20 09:44:20;;;;;;;1.80;1.50;;;;;;;;;;103122;1320;22566;-24
2022/07/20 09:46:49;;;;;;;1.90;1.60;;;;;;;;;;103137;1320;25404;-29
2022/07/20 09:49:18;;;;;;;2.70;1.40;;;;;;;;;;103202;1320;22558;-29
2022/07/20 09:51:47;;;;;;;5.60;1.90;;;;;;;;;;103286;1328;25326;-25
2022/07/20 09:54:17;;;;;;;10.30;1.70;;;;;;;;;;103385;1320;22565;-25
2022/07/20 09:56:47;;;;;;;6.60;1.80;;;;;;;;;;103177;1314;22622;-31
2022/07/20 09:59:16;;;;;;;2.30;1.60;;;;;;;;;;103187;1320;22818;-25
2022/07/20 10:01:46;;;;;;;3.40;1.70;;;;;;;;;;103270;1314;22699;-29
2022/07/20 10:04:15;;;;;;;3.70;2.50;;;;;;;;;;103104;1320;25473;-30
2022/07/20 10:06:46;;;;;;;8.10;1.90;;;;;;;;;;103181;1314;22569;-29
2022/07/20 10:09:15;;;;;;;2.10;1.40;;;;;;;;;;103127;1323;22682;-23
2022/07/20 10:11:44;;;;;;;6.90;1.80;;;;;;;;;;103087;1324;22595;-28
2022/07/20 10:14:21;;;;;;;2.60;1.50;;;;;;;;;;103326;1314;23189;-25
2022/07/20 10:16:51;;;;;;;10.40;2.00;;;;;;;;;;103169;1323;22671;-29
2022/07/20 10:19:39;;;;;;;14.30;1.90;;;;;;;;;;103111;1320;22595;-29
2022/07/20 10:22:08;;;;;;;5.30;1.70;;;;;;;;;;103280;1320;22475;-29
2022/07/20 10:24:39;;;;;;;3.40;2.00;;;;;;;;;;103197;1320;22737;-28
2022/07/20 10:27:22;;;;;;;2.50;2.00;;;;;;;;;;103203;1320;22548;-28
2022/07/20 10:29:52;;;;;;;1.60;1.20;;;;;;;;;;103254;1320;23057;-28
2022/07/20 10:32:23;;;;;;;5.30;1.60;;;;;;;;;;103193;1320;22578;-24
2022/07/20 10:34:52;;;;;;;3.50;1.70;;;;;;;;;;103136;1320;25350;-24
2022/07/20 10:37:25;;;;;;;2.10;1.90;;;;;;;;;;103239;1320;22778;-28
2022/07/20 10:39:57;;;;;;;7.00;2.10;;;;;;;;;;103251;1320;22609;-24
2022/07/20 10:42:30;;;;;;;3.20;1.90;;;;;;;;;;103183;1321;22627;-28
2022/07/20 10:45:02;;;;;;;2.70;1.90;;;;;;;;;;103319;1320;23628;-24
2022/07/20 10:47:34;;;;;;;1.70;1.40;;;;;;;;;;103148;1320;22898;-29
2022/07/20 10:50:03;;;;;;;14.30;1.80;;;;;;;;;;103177;1320;22711;-24
2022/07/20 10:52:33;;;;;;;4.80;2.00;;;;;;;;;;103154;1320;22937;-29
2022/07/20 10:55:02;;;;;;;3.30;2.00;;;;;;;;;;103145;1320;22827;-24
2022/07/20 10:57:31;;;;;;;2.20;1.60;;;;;;;;;;103191;1323;23068;-30
2022/07/20 11:00:02;;;;;;;7.70;2.20;;;;;;;;;;103130;1314;22584;-24
2022/07/20 11:02:31;;;;;;;4.70;2.20;;;;;;;;;;103135;1320;22572;-24
2022/07/20 11:05:00;;;;;;;3.10;2.30;;;;;;;;;;103361;1314;22566;-24
2022/07/20 11:07:31;;;;;;;10.80;1.70;;;;;;;;;;103218;1320;22837;-28
2022/07/20 11:10:01;;;;;;;2.90;2.10;;;;;;;;;;103196;1320;24286;-24
2022/07/20 11:12:29;;;;;;;4.50;3.30;;;;;;;;;;103163;1320;22964;-24
2022/07/20 11:14:59;;;;;;;2.50;2.00;;;;;;;;;;103239;1314;22586;-24
2022/07/20 11:17:29;;;;;;;3.40;1.80;;;;;;;;;;103299;1320;22900;-24
2022/07/20 11:19:57;;;;;;;10.70;2.40;;;;;;;;;;103158;1314;22565;-24
2022/07/20 11:22:26;;;;;;;4.30;1.80;;;;;;;;;;103195;1321;22724;-28
2022/07/20 11:24:55;;;;;;;7.60;2.10;;;;;;;;;;103282;1313;22962;-24
2022/07/20 11:27:24;;;;;;;3.10;1.70;;;;;;;;;;103240;1320;22712;-25
2022/07/20 11:29:53;;;;;;;4.50;1.90;;;;;;;;;;103209;1313;22735;-29
2022/07/20 11:32:21;;;;;;;9.30;2.30;;;;;;;;;;103230;1313;24417;-29
2022/07/20 11:34:53;;;;;;;2.50;1.80;;;;;;;;;;103203;1314;22553;-29
2022/07/20 11:37:22;;;;;;;3.50;1.60;;;;;;;;;;103148;1323;22642;-28
2022/07/20 11:39:51;;;;;;;3.50;2.40;;;;;;;;;;103064;1316;22838;-24
2022/07/20 11:42:20;;;;;;;2.70;2.00;;;;;;;;;;103247;1314;22735;-25
2022/07/20 11:44:52;;;;;;;2.10;1.90;;;;;;;;;;103183;1313;22804;-29
2022/07/20 11:47:21;;;;;;;5.30;2.60;;;;;;;;;;103232;1320;22719;-25
2022/07/20 11:50:02;;;;;;;2.10;1.60;;;;;;;;;;103188;1313;22564;-25
2022/07/20 11:52:41;;;;;;;3.90;1.90;;;;;;;;;;103185;1320;22552;-29
2022/07/20 11:55:09;;;;;;;3.00;1.90;;;;;;;;;;103143;1320;22648;-30
2022/07/20 11:57:40;;;;;;;3.10;2.30;;;;;;;;;;103169;1320;22859;-30
2022/07/20 12:00:09;;;;;;;1.50;1.40;;;;;;;;;;103193;1320;22609;-27
2022/07/20 12:02:47;;;;;;;3.40;2.30;;;;;;;;;;102900;1320;500373;-28
2022/07/20 12:05:24;;;;;;;1.70;1.20;;;;;;;;;;103157;1323;22685;-23
2022/07/20 12:08:10;;;;;;;2.40;2.20;;;;;;;;;;103242;1322;22550;-24
2022/07/20 12:10:40;;;;;;;17.70;2.30;;;;;;;;;;103309;1320;22676;-24
2022/07/20 12:13:10;;;;;;;5.10;2.00;;;;;;;;;;103071;1321;22717;-25
2022/07/20 12:15:39;;;;;;;2.20;2.00;;;;;;;;;;103180;1320;22644;-24
2022/07/20 12:18:08;;;;;;;4.00;1.90;;;;;;;;;;102433;1320;1003426;-29
2022/07/20 12:20:37;;;;;;;22.80;13.90;;;;;;;;;;103120;1320;22576;-25
2022/07/20 12:23:06;;;;;;;2.40;1.70;;;;;;;;;;103137;1320;22546;-25
2022/07/20 12:25:36;;;;;;;4.10;2.70;;;;;;;;;;103228;1313;22631;-29
2022/07/20 12:28:05;;;;;;;4.10;1.50;;;;;;;;;;103293;1320;22863;-23
2022/07/20 12:30:36;;;;;;;1.90;1.30;;;;;;;;;;103230;1314;22860;-24
2022/07/20 12:33:05;;;;;;;;;;;;;;;;;;103108;1320;22560;-28
2022/07/20 12:35:35;;;;;;;13.40;8.10;;;;;;;;;;103226;1315;22731;-28
2022/07/20 12:38:04;;;;;;;5.20;1.80;;;;;;;;;;103312;1320;23047;-28
2022/07/20 12:40:33;;;;;;;3.90;1.70;;;;;;;;;;103207;1320;22681;-26
2022/07/20 12:43:02;;;;;;;4.40;1.80;;;;;;;;;;103136;1314;23038;-24
2022/07/20 12:45:31;;;;;;;2.70;1.50;;;;;;;;;;102557;1314;1002964;-25
2022/07/20 12:48:00;;;;;;;1.90;1.00;;;;;;;;;;103244;1321;23002;-29
2022/07/20 12:50:29;;;;;;;1.80;1.50;;;;;;;;;;103247;1314;22568;-28
2022/07/20 12:52:58;;;;;;;1.70;1.50;;;;;;;;;;103323;1328;22866;-28
2022/07/20 12:55:27;;;;;;;6.60;2.00;;;;;;;;;;103124;1320;23163;-24
2022/07/20 12:57:55;;;;;;;7.20;2.20;;;;;;;;;;103162;1323;22704;-28
2022/07/20 13:00:24;;;;;;;3.40;2.90;;;;;;;;;;103230;1319;22790;-25
2022/07/20 13:02:53;;;;;;;3.00;1.90;;;;;;;;;;103151;1320;22573;-28
2022/07/20 13:05:22;;;;;;;4.60;2.50;;;;;;;;;;103309;1319;22630;-25
2022/07/20 13:07:51;;;;;;;1.80;1.40;;;;;;;;;;103193;1315;22816;-29
2022/07/20 13:10:20;;;;;;;3.20;2.00;;;;;;;;;;103261;1320;22711;-24
2022/07/20 13:12:57;;;;;;;4.60;2.30;;;;;;;;;;103360;1323;22701;-28
2022/07/20 13:15:34;;;;;;;1.80;1.70;;;;;;;;;;103105;1314;22802;-28
2022/07/20 13:18:12;;;;;;;4.40;2.40;;;;;;;;;;103261;1300;22569;-28
2022/07/20 13:20:40;;;;;;;2.80;1.90;;;;;;;;;;103066;1314;22719;-24
2022/07/20 13:23:09;;;;;;;2.80;2.10;;;;;;;;;;103167;1320;22535;-25
2022/07/20 13:25:38;;;;;;;3.70;2.10;;;;;;;;;;103099;1320;22832;-25
2022/07/20 13:28:07;;;;;;;5.00;2.40;;;;;;;;;;103223;1320;22716;-28
2022/07/20 13:30:36;;;;;;;9.50;2.70;;;;;;;;;;103205;1314;22561;-24
2022/07/20 13:33:05;;;;;;;5.70;2.00;;;;;;;;;;103139;1320;22831;-29
2022/07/20 13:35:34;;;;;;;6.60;3.00;;;;;;;;;;103107;1314;22562;-29
2022/07/20 13:38:03;;;;;;;2.30;1.60;;;;;;;;;;103244;1314;22549;-25
2022/07/20 13:40:32;;;;;;;3.10;2.50;;;;;;;;;;103199;1321;22592;-29
2022/07/20 13:43:01;;;;;;;5.40;2.10;;;;;;;;;;103308;1320;22848;-29
2022/07/20 13:45:30;;;;;;;5.40;3.30;;;;;;;;;;103130;1320;22602;-24
2022/07/20 13:47:59;;;;;;;4.00;3.40;;;;;;;;;;103175;1322;22741;-28
2022/07/20 13:50:28;;;;;;;22.00;3.10;;;;;;;;;;103105;1320;22695;-28
2022/07/20 13:52:56;;;;;;;3.20;2.00;;;;;;;;;;103080;1326;22723;-28
2022/07/20 13:55:25;;;;;;;10.70;4.80;;;;;;;;;;103086;1320;22822;-29
2022/07/20 13:57:54;;;;;;;12.40;4.50;;;;;;;;;;103200;1326;22582;-29
2022/07/20 14:00:23;;;;;;;9.60;2.00;;;;;;;;;;103162;1314;22712;-25
2022/07/20 14:02:52;;;;;;;3.70;2.50;;;;;;;;;;103353;1324;22707;-29
2022/07/20 14:05:21;;;;;;;4.90;1.70;;;;;;;;;;103147;1320;22547;-25
2022/07/20 14:07:50;;;;;;;9.90;1.80;;;;;;;;;;103127;1320;22712;-24
2022/07/20 14:10:19;;;;;;;3.30;1.80;;;;;;;;;;103199;1314;22554;-28
2022/07/20 14:12:47;;;;;;;2.60;1.80;;;;;;;;;;103123;1323;22560;-28
2022/07/20 14:15:16;;;;;;;2.50;1.70;;;;;;;;;;103318;1313;22546;-25
2022/07/20 14:17:45;;;;;;;4.70;1.60;;;;;;;;;;103215;1323;22574;-28
2022/07/20 14:20:14;;;;;;;3.20;2.60;;;;;;;;;;103088;1326;22721;-25
2022/07/20 14:22:43;;;;;;;3.40;2.00;;;;;;;;;;103188;1314;22585;-25
2022/07/20 14:25:12;;;;;;;2.20;1.80;;;;;;;;;;103224;1320;22618;-25
2022/07/20 14:27:41;;;;;;;2.40;1.80;;;;;;;;;;103323;1326;22564;-25
2022/07/20 14:30:10;;;;;;;3.00;2.70;;;;;;;;;;103095;1320;22739;-28
2022/07/20 14:32:39;;;;;;;3.50;2.60;;;;;;;;;;103109;1320;22719;-25
2022/07/20 14:35:08;;;;;;;17.40;2.40;;;;;;;;;;103246;1314;22708;-24
2022/07/20 14:37:37;;;;;;;3.30;2.50;;;;;;;;;;103135;1320;22551;-28
2022/07/20 14:40:06;;;;;;;2.70;2.10;;;;;;;;;;103215;1313;22810;-28
2022/07/20 14:42:36;;;;;;;10.60;1.50;;;;;;;;;;103053;1320;22561;-28
2022/07/20 14:45:05;;;;;;;2.10;1.60;;;;;;;;;;103228;1314;22825;-24